Time;durP1;ratioP1;P1;durP2;ratioP2;P2;SDS_P1;SDS_P2;PMS_P1;PMS_P2;Temp;Humidity;BMP_temperature;BMP_pressure;BME280_temperature;BME280_humidity;BME280_pressure;Samples;Min_cycle;Max_cycle;Signal;HPM_P1;HPM_P2
2021/04/02 00:01:29;;;;;;;1999.90;999.90;;;6.50;49.40;;;;;;5066827;28;20140;-72
2021/04/02 00:03:55;;;;;;;1999.90;999.90;;;6.50;49.50;;;;;;5068728;28;20522;-72
2021/04/02 00:06:22;;;;;;;1999.90;999.90;;;6.50;49.40;;;;;;5064530;28;20048;-72
2021/04/02 00:08:48;;;;;;;1999.90;999.90;;;6.50;49.50;;;;;;5065581;28;20045;-72
2021/04/02 00:11:14;;;;;;;1999.90;999.90;;;6.50;49.50;;;;;;5067685;28;20048;-72
2021/04/02 00:13:46;;;;;;;1999.90;999.90;;;6.50;49.50;;;;;;5065793;28;20055;-72
2021/04/02 00:16:15;;;;;;;1999.90;999.90;;;6.50;49.50;;;;;;5069063;28;20052;-72
2021/04/02 00:18:42;;;;;;;1999.90;999.90;;;6.50;49.70;;;;;;5064159;28;20451;-72
2021/04/02 00:21:11;;;;;;;1999.90;999.90;;;6.50;49.60;;;;;;5066068;28;20428;-71
2021/04/02 00:23:38;;;;;;;1999.90;999.90;;;6.50;49.70;;;;;;5064450;28;20059;-71
2021/04/02 00:26:10;;;;;;;1999.90;999.90;;;6.40;49.60;;;;;;5066847;28;20472;-72
2021/04/02 00:28:36;;;;;;;1999.90;999.90;;;6.40;49.70;;;;;;5067904;28;20052;-72
2021/04/02 00:31:03;;;;;;;1999.90;999.90;;;6.40;49.60;;;;;;5065073;28;20059;-72
2021/04/02 00:33:32;;;;;;;1999.90;999.90;;;6.40;49.80;;;;;;5062791;28;20507;-72
2021/04/02 00:36:00;;;;;;;1999.90;999.90;;;6.30;49.80;;;;;;5061160;28;20076;-72
2021/04/02 00:38:27;;;;;;;1999.90;999.90;;;6.30;50.00;;;;;;5060605;28;20105;-72
2021/04/02 00:41:08;;;;;;;1999.90;999.90;;;6.30;49.90;;;;;;5067667;28;20055;-72
2021/04/02 00:43:40;;;;;;;1999.90;999.90;;;6.30;50.00;;;;;;5065731;28;20055;-72
2021/04/02 00:46:09;;;;;;;1999.90;999.90;;;6.20;49.70;;;;;;5065432;28;20044;-72
2021/04/02 00:48:36;;;;;;;1999.90;999.90;;;6.20;49.80;;;;;;5067995;28;20235;-71
2021/04/02 00:51:11;;;;;;;1999.90;999.90;;;6.10;49.70;;;;;;5062904;28;20127;-72
2021/04/02 00:53:41;;;;;;;1999.90;999.90;;;6.10;49.70;;;;;;5063176;28;20049;-72
2021/04/02 00:56:10;;;;;;;1999.90;999.90;;;6.10;49.70;;;;;;5063152;28;20052;-72
2021/04/02 00:58:37;;;;;;;1999.90;999.90;;;6.00;49.70;;;;;;5068981;28;20106;-72
2021/04/02 01:01:05;;;;;;;1999.90;999.90;;;6.00;49.80;;;;;;5063487;28;20049;-72
2021/04/02 01:03:32;;;;;;;1999.90;999.90;;;5.90;49.70;;;;;;5065851;28;20143;-72
2021/04/02 01:06:02;;;;;;;1999.90;999.90;;;5.90;49.60;;;;;;5066978;28;20051;-72
2021/04/02 01:08:31;;;;;;;1999.90;999.90;;;5.90;49.60;;;;;;5068595;28;20052;-72
2021/04/02 01:11:01;;;;;;;1999.90;999.90;;;5.80;49.60;;;;;;5067090;28;20610;-72
2021/04/02 01:13:42;;;;;;;1999.90;999.90;;;5.80;49.60;;;;;;5059666;28;20127;-72
2021/04/02 01:16:16;;;;;;;1999.90;999.90;;;5.70;49.70;;;;;;5066347;28;20098;-72
2021/04/02 01:19:02;;;;;;;1999.90;999.90;;;5.70;49.70;;;;;;5066506;28;20407;-72
2021/04/02 01:21:41;;;;;;;1999.90;999.90;;;5.60;49.70;;;;;;5068223;28;20067;-72
2021/04/02 01:24:28;;;;;;;1999.90;999.90;;;5.50;49.70;;;;;;5069846;28;20055;-72
2021/04/02 01:27:06;;;;;;;1999.90;999.90;;;5.50;49.70;;;;;;5067024;28;20052;-72
2021/04/02 01:29:54;;;;;;;1999.90;999.90;;;5.40;49.70;;;;;;5068451;28;20091;-72
2021/04/02 01:32:35;;;;;;;1999.90;999.90;;;5.40;49.70;;;;;;5071817;28;20045;-72
2021/04/02 01:35:11;;;;;;;1999.90;999.90;;;5.40;49.70;;;;;;5068837;28;20049;-71
2021/04/02 01:37:41;;;;;;;1999.90;999.90;;;5.30;49.70;;;;;;5068922;28;20063;-72
2021/04/02 01:40:09;;;;;;;1999.90;999.90;;;5.30;50.20;;;;;;5069911;28;20053;-72
2021/04/02 01:42:38;;;;;;;1999.90;999.90;;;5.30;49.70;;;;;;5061649;28;20040;-72
2021/04/02 01:45:07;;;;;;;1999.90;999.90;;;5.30;49.70;;;;;;5067366;28;20041;-72
2021/04/02 01:47:34;;;;;;;1999.90;999.90;;;5.30;49.70;;;;;;5069662;28;20146;-72
2021/04/02 01:50:01;;;;;;;1999.90;999.90;;;5.30;49.70;;;;;;5071684;28;20041;-72
2021/04/02 01:52:29;;;;;;;1999.90;999.90;;;5.30;49.70;;;;;;5069440;28;20052;-72
2021/04/02 01:54:57;;;;;;;1999.90;999.90;;;5.30;49.70;;;;;;5072340;28;20048;-72
2021/04/02 01:57:26;;;;;;;1999.90;999.90;;;5.20;49.80;;;;;;5065158;28;20051;-72
2021/04/02 01:59:54;;;;;;;1999.90;999.90;;;5.20;49.80;;;;;;5071475;28;20044;-73
2021/04/02 02:02:21;;;;;;;1999.90;999.90;;;5.20;50.00;;;;;;5066269;28;20059;-72
2021/04/02 02:04:48;;;;;;;1999.90;999.90;;;5.20;50.20;;;;;;5071327;28;20613;-72
2021/04/02 02:07:17;;;;;;;1999.90;999.90;;;5.10;50.80;;;;;;5070198;28;20044;-72
2021/04/02 02:09:46;;;;;;;1999.90;999.90;;;5.10;50.50;;;;;;5072517;28;20581;-72
2021/04/02 02:12:14;;;;;;;;;;;5.10;50.40;;;;;;5070862;28;20044;-72
2021/04/02 02:14:45;;;;;;;1999.90;999.90;;;5.10;50.70;;;;;;5066761;28;19924;-72
2021/04/02 02:17:16;;;;;;;1999.90;999.90;;;5.00;49.90;;;;;;5061797;28;20051;-71
2021/04/02 02:19:43;;;;;;;1999.90;999.90;;;5.00;50.00;;;;;;5066323;28;20059;-72
2021/04/02 02:22:11;;;;;;;1999.90;999.90;;;5.00;50.10;;;;;;5064833;28;20044;-72
2021/04/02 02:24:38;;;;;;;1999.90;999.90;;;5.00;50.20;;;;;;5068240;28;20099;-71
2021/04/02 02:27:07;;;;;;;1999.90;999.90;;;5.00;50.50;;;;;;5067126;28;20402;-72
2021/04/02 02:29:34;;;;;;;1999.90;999.90;;;5.00;50.40;;;;;;5069260;28;20495;-72
2021/04/02 02:32:01;;;;;;;1999.90;999.90;;;5.00;50.60;;;;;;5068009;28;20060;-72
2021/04/02 02:34:28;;;;;;;1999.90;999.90;;;5.00;50.50;;;;;;5071396;28;20083;-72
2021/04/02 02:36:54;;;;;;;1999.90;999.90;;;4.90;50.70;;;;;;5070447;28;20047;-72
2021/04/02 02:39:21;;;;;;;1999.90;999.90;;;4.90;50.50;;;;;;5071355;28;20048;-72
2021/04/02 02:41:47;;;;;;;1999.90;999.90;;;4.90;50.80;;;;;;5067559;28;20678;-71
2021/04/02 02:44:14;;;;;;;1999.90;999.90;;;4.80;50.80;;;;;;5070162;28;20053;-72
2021/04/02 02:46:40;;;;;;;1999.90;999.90;;;4.80;51.00;;;;;;5066883;28;20076;-72
2021/04/02 02:49:14;;;;;;;1999.90;999.90;;;4.80;51.00;;;;;;5069635;28;20059;-71
2021/04/02 02:51:42;;;;;;;1999.90;999.90;;;4.70;50.70;;;;;;5069108;28;20072;-72
2021/04/02 02:54:14;;;;;;;1999.90;999.90;;;4.70;50.70;;;;;;5071480;28;20495;-72
2021/04/02 02:56:44;;;;;;;1999.90;999.90;;;4.70;50.60;;;;;;5065702;28;20685;-71
2021/04/02 02:59:14;;;;;;;1999.90;999.90;;;4.80;50.70;;;;;;5065481;28;20045;-72
2021/04/02 03:01:42;;;;;;;1999.90;999.90;;;4.80;50.60;;;;;;5070083;28;20048;-72
2021/04/02 03:04:10;;;;;;;1999.90;999.90;;;4.70;50.40;;;;;;5065514;28;20476;-72
2021/04/02 03:06:38;;;;;;;1999.90;999.90;;;4.70;50.40;;;;;;5069104;28;20058;-71
2021/04/02 03:09:06;;;;;;;1999.90;999.90;;;4.70;50.50;;;;;;5066945;28;20040;-72
2021/04/02 03:11:33;;;;;;;1999.90;999.90;;;4.60;50.30;;;;;;5070234;28;20047;-72
2021/04/02 03:14:00;;;;;;;1999.90;999.90;;;4.60;50.40;;;;;;5058503;28;20045;-71
2021/04/02 03:16:27;;;;;;;1999.90;999.90;;;4.60;50.50;;;;;;5066674;28;20048;-71
2021/04/02 03:18:56;;;;;;;1999.90;999.90;;;4.60;50.50;;;;;;5065036;28;20492;-71
2021/04/02 03:21:23;;;;;;;1999.90;999.90;;;4.60;50.60;;;;;;5069932;28;20052;-72
2021/04/02 03:23:52;;;;;;;1999.90;999.90;;;4.60;50.60;;;;;;5064271;28;20349;-72
2021/04/02 03:26:20;;;;;;;1999.90;999.90;;;4.50;50.50;;;;;;5064163;28;20041;-71
2021/04/02 03:28:48;;;;;;;1999.90;999.90;;;4.50;50.60;;;;;;5067479;28;20048;-72
2021/04/02 03:31:16;;;;;;;1999.90;999.90;;;4.50;51.20;;;;;;5068171;28;20048;-71
2021/04/02 03:33:49;;;;;;;1999.90;999.90;;;4.50;50.50;;;;;;5069369;28;20055;-71
2021/04/02 03:36:18;;;;;;;1999.90;999.90;;;4.40;50.50;;;;;;5064082;28;20057;-72
2021/04/02 03:38:46;;;;;;;1999.90;999.90;;;4.40;50.60;;;;;;5067134;28;20128;-71
2021/04/02 03:41:22;;;;;;;1999.90;999.90;;;4.40;50.70;;;;;;5065787;28;20048;-73
2021/04/02 03:43:49;;;;;;;1999.90;999.90;;;4.40;50.50;;;;;;5065927;28;20036;-71
2021/04/02 03:46:18;;;;;;;1999.90;999.90;;;4.40;50.50;;;;;;5068374;28;20040;-72
2021/04/02 03:48:47;;;;;;;1999.90;999.90;;;4.40;50.40;;;;;;5070457;28;20050;-72
2021/04/02 03:51:19;;;;;;;1999.90;999.90;;;4.30;50.40;;;;;;5061270;28;20145;-72
2021/04/02 03:53:50;;;;;;;1999.90;999.90;;;4.30;50.50;;;;;;5060489;28;20040;-72
2021/04/02 03:56:21;;;;;;;1999.90;999.90;;;4.30;50.50;;;;;;5065256;28;20044;-72
2021/04/02 03:58:48;;;;;;;1999.90;999.90;;;4.30;50.60;;;;;;5068846;28;20051;-72
2021/04/02 04:01:18;;;;;;;1999.90;999.90;;;4.20;50.40;;;;;;5068825;28;20392;-71
2021/04/02 04:03:47;;;;;;;1999.90;999.90;;;4.20;50.50;;;;;;5065909;28;20096;-72
2021/04/02 04:06:16;;;;;;;1999.90;999.90;;;4.20;50.50;;;;;;5069804;28;20519;-71
2021/04/02 04:08:46;;;;;;;1999.90;999.90;;;4.10;50.40;;;;;;5062918;28;20041;-71
2021/04/02 04:11:15;;;;;;;1999.90;999.90;;;4.10;50.50;;;;;;5067633;28;20060;-71
2021/04/02 04:13:44;;;;;;;;;;;4.10;50.50;;;;;;5068655;28;20441;-72
2021/04/02 04:16:14;;;;;;;1999.90;999.90;;;4.10;51.00;;;;;;5067351;28;19920;-72
2021/04/02 04:18:42;;;;;;;1999.90;999.90;;;4.10;50.20;;;;;;5064632;28;20052;-72
2021/04/02 04:21:09;;;;;;;1999.90;999.90;;;4.10;50.20;;;;;;5066221;28;20049;-71
2021/04/02 04:23:38;;;;;;;1999.90;999.90;;;4.10;50.30;;;;;;5069059;28;20509;-71
2021/04/02 04:26:05;;;;;;;1999.90;999.90;;;4.00;50.40;;;;;;5066975;28;20066;-72
2021/04/02 04:28:33;;;;;;;1999.90;999.90;;;4.00;50.40;;;;;;5061626;28;20051;-72
2021/04/02 04:31:02;;;;;;;1999.90;999.90;;;4.10;50.60;;;;;;5060913;28;20045;-71
2021/04/02 04:33:30;;;;;;;1999.90;999.90;;;4.00;50.60;;;;;;5055984;28;20133;-71
2021/04/02 04:35:59;;;;;;;1999.90;999.90;;;4.00;50.90;;;;;;5063936;28;20080;-72
2021/04/02 04:38:27;;;;;;;1999.90;999.90;;;4.10;50.70;;;;;;5057845;28;20494;-72
2021/04/02 04:40:56;;;;;;;1999.90;999.90;;;4.10;51.00;;;;;;5060054;28;20466;-72
2021/04/02 04:43:23;;;;;;;1999.90;999.90;;;4.10;51.00;;;;;;5056501;28;20040;-72
2021/04/02 04:45:50;;;;;;;1999.90;999.90;;;4.10;51.70;;;;;;5073464;28;20045;-71
2021/04/02 04:48:16;;;;;;;1999.90;999.90;;;4.10;51.30;;;;;;5060418;28;20102;-71
2021/04/02 04:50:42;;;;;;;1999.90;999.90;;;4.10;51.30;;;;;;5056259;28;20065;-71
2021/04/02 04:53:16;;;;;;;1999.90;999.90;;;4.10;51.50;;;;;;5060194;28;20044;-71
2021/04/02 04:55:44;;;;;;;1999.90;999.90;;;4.10;51.50;;;;;;5063040;28;20045;-71
2021/04/02 04:58:13;;;;;;;;;;;4.10;51.80;;;;;;5061586;28;20128;-72
2021/04/02 05:00:42;;;;;;;1999.90;999.90;;;4.10;52.60;;;;;;5061062;28;19928;-72
2021/04/02 05:03:12;;;;;;;1999.90;999.90;;;4.10;51.80;;;;;;5065430;28;20047;-71
2021/04/02 05:05:42;;;;;;;1999.90;999.90;;;4.10;52.00;;;;;;5056617;28;20044;-71
2021/04/02 05:08:13;;;;;;;1999.90;999.90;;;4.10;52.00;;;;;;5061700;28;20058;-71
2021/04/02 05:10:43;;;;;;;1999.90;999.90;;;4.10;51.90;;;;;;5066263;28;20083;-72
2021/04/02 05:13:10;;;;;;;1999.90;999.90;;;4.10;52.00;;;;;;5059536;28;20045;-71
2021/04/02 05:15:38;;;;;;;1999.90;999.90;;;4.20;52.40;;;;;;5068789;28;20147;-71
2021/04/02 05:18:06;;;;;;;1999.90;999.90;;;4.20;52.50;;;;;;5067378;28;20056;-72
2021/04/02 05:20:43;;;;;;;1999.90;999.90;;;4.20;52.40;;;;;;5068865;28;20047;-71
2021/04/02 05:23:12;;;;;;;1999.90;999.90;;;4.20;52.40;;;;;;5066033;28;20123;-71
2021/04/02 05:25:39;;;;;;;1999.90;999.90;;;4.20;52.50;;;;;;5069865;28;20044;-72
2021/04/02 05:28:06;;;;;;;1999.90;999.90;;;4.20;52.50;;;;;;5067226;28;20139;-71
2021/04/02 05:30:34;;;;;;;1999.90;999.90;;;4.20;52.60;;;;;;5067477;28;20139;-71
2021/04/02 05:33:01;;;;;;;1999.90;999.90;;;4.30;52.70;;;;;;5064935;28;20054;-71
2021/04/02 05:35:27;;;;;;;1999.90;999.90;;;4.30;52.80;;;;;;5067397;28;20109;-71
2021/04/02 05:37:54;;;;;;;1999.90;999.90;;;4.30;52.80;;;;;;5066012;28;20045;-72
2021/04/02 05:40:20;;;;;;;1999.90;999.90;;;4.30;53.40;;;;;;5065576;28;20127;-72
2021/04/02 05:43:16;;;;;;;1999.90;999.90;;;4.30;53.10;;;;;;5061705;28;20049;-71
2021/04/02 05:45:42;;;;;;;1999.90;999.90;;;4.40;53.20;;;;;;5063654;28;20056;-71
2021/04/02 05:48:10;;;;;;;1999.90;999.90;;;4.40;53.20;;;;;;5065369;28;20106;-72
2021/04/02 05:50:37;;;;;;;1999.90;999.90;;;4.50;53.50;;;;;;5067361;28;20053;-71
2021/04/02 05:53:07;;;;;;;1999.90;999.90;;;4.50;53.60;;;;;;5065442;28;20726;-72
2021/04/02 05:55:36;;;;;;;1999.90;999.90;;;4.60;53.80;;;;;;5065652;28;20048;-72
2021/04/02 05:58:07;;;;;;;1999.90;999.90;;;4.70;54.00;;;;;;5065848;28;20056;-71
2021/04/02 06:00:36;;;;;;;1999.90;999.90;;;4.80;54.10;;;;;;5067886;28;20075;-71
2021/04/02 06:03:04;;;;;;;1999.90;999.90;;;4.80;54.10;;;;;;5065979;28;20052;-71
2021/04/02 06:05:31;;;;;;;1999.90;999.90;;;4.90;54.40;;;;;;5065903;28;20143;-71
2021/04/02 06:07:58;;;;;;;1999.90;999.90;;;5.00;54.40;;;;;;5064439;28;20040;-71
2021/04/02 06:10:26;;;;;;;1999.90;999.90;;;5.10;54.60;;;;;;5065355;28;20040;-72
2021/04/02 06:12:56;;;;;;;1999.90;999.90;;;5.10;54.60;;;;;;5066832;28;20053;-72
2021/04/02 06:15:22;;;;;;;1999.90;999.90;;;5.20;54.70;;;;;;5067388;28;20139;-72
2021/04/02 06:18:04;;;;;;;1999.90;999.90;;;5.30;55.00;;;;;;5066637;28;20150;-72
2021/04/02 06:20:34;;;;;;;1999.90;999.90;;;5.40;55.20;;;;;;5068601;28;20451;-72
2021/04/02 06:23:24;;;;;;;1999.90;999.90;;;5.40;55.10;;;;;;5071191;28;20036;-71
2021/04/02 06:25:52;;;;;;;1999.90;999.90;;;5.50;55.30;;;;;;5067635;28;20040;-71
2021/04/02 06:28:24;;;;;;;1999.90;999.90;;;5.60;55.70;;;;;;5065643;28;20052;-72
2021/04/02 06:30:57;;;;;;;1999.90;999.90;;;5.70;55.70;;;;;;5070173;28;20049;-72
2021/04/02 06:33:31;;;;;;;1999.90;999.90;;;5.80;56.00;;;;;;5072669;28;20123;-72
2021/04/02 06:35:57;;;;;;;1999.90;999.90;;;5.90;56.10;;;;;;5065248;28;20051;-72
2021/04/02 06:38:33;;;;;;;1999.90;999.90;;;6.00;56.30;;;;;;5071662;28;20052;-71
2021/04/02 06:41:05;;;;;;;1999.90;999.90;;;6.10;56.50;;;;;;5067837;28;20102;-71
2021/04/02 06:43:40;;;;;;;1999.90;999.90;;;6.20;56.60;;;;;;5064112;28;20471;-72
2021/04/02 06:46:17;;;;;;;1999.90;999.90;;;6.30;56.70;;;;;;5066235;28;20155;-72
2021/04/02 06:48:44;;;;;;;1999.90;999.90;;;6.30;56.60;;;;;;5069140;28;20136;-71
2021/04/02 06:51:12;;;;;;;1999.90;999.90;;;6.50;56.90;;;;;;5069881;28;20132;-71
2021/04/02 06:53:40;;;;;;;1999.90;999.90;;;6.60;57.50;;;;;;5068779;28;20515;-74
2021/04/02 06:56:09;;;;;;;1999.90;999.90;;;6.60;57.30;;;;;;5066130;28;20048;-72
2021/04/02 06:58:38;;;;;;;1999.90;999.90;;;6.80;57.40;;;;;;5068385;28;20045;-72
2021/04/02 07:01:05;;;;;;;;;;;6.90;57.70;;;;;;5068083;28;20129;-72
2021/04/02 07:03:33;;;;;;;1999.90;999.90;;;7.00;58.60;;;;;;5066979;28;20020;-72
2021/04/02 07:06:05;;;;;;;1999.90;999.90;;;7.10;57.60;;;;;;5070597;28;20044;-72
2021/04/02 07:08:33;;;;;;;1999.90;999.90;;;7.20;57.50;;;;;;5070406;28;20044;-71
2021/04/02 07:11:00;;;;;;;1999.90;999.90;;;7.30;57.70;;;;;;5069437;28;20040;-71
2021/04/02 07:13:32;;;;;;;1999.90;999.90;;;7.40;57.90;;;;;;5067950;28;20139;-72
2021/04/02 07:15:59;;;;;;;1999.90;999.90;;;7.50;58.00;;;;;;5064814;28;20055;-71
2021/04/02 07:18:26;;;;;;;1999.90;999.90;;;7.60;58.30;;;;;;5066760;28;20070;-71
2021/04/02 07:20:54;;;;;;;1999.90;999.90;;;7.60;58.40;;;;;;5066218;28;20053;-72
2021/04/02 07:23:20;;;;;;;1999.90;999.90;;;7.80;59.00;;;;;;5066093;28;20063;-72
2021/04/02 07:25:47;;;;;;;1999.90;999.90;;;7.90;59.00;;;;;;5066313;28;20120;-72
2021/04/02 07:28:13;;;;;;;1999.90;999.90;;;7.90;58.70;;;;;;5066156;28;20040;-72
2021/04/02 07:30:42;;;;;;;1999.90;999.90;;;7.90;58.70;;;;;;5065747;28;20044;-71
2021/04/02 07:33:10;;;;;;;;;;;8.00;58.90;;;;;;5067974;28;20056;-72
2021/04/02 07:35:37;;;;;;;1999.90;999.90;;;8.00;59.60;;;;;;5067350;28;19930;-72
2021/04/02 07:38:09;;;;;;;1999.90;999.90;;;8.10;59.30;;;;;;5068253;28;20508;-71
2021/04/02 07:40:36;;;;;;;1999.90;999.90;;;8.20;59.90;;;;;;5068957;28;20272;-71
2021/04/02 07:43:08;;;;;;;1999.90;999.90;;;8.20;59.90;;;;;;5065920;28;20461;-72
2021/04/02 07:45:37;;;;;;;1999.90;999.90;;;8.30;59.80;;;;;;5057327;28;20075;-72
2021/04/02 07:48:29;;;;;;;1999.90;999.90;;;8.20;59.90;;;;;;5060025;28;20037;-73
2021/04/02 07:51:00;;;;;;;1999.90;999.90;;;8.20;59.80;;;;;;5060128;28;20068;-72
2021/04/02 07:53:26;;;;;;;1999.90;999.90;;;8.20;59.80;;;;;;5062559;28;20131;-72
2021/04/02 07:56:14;;;;;;;1999.90;999.90;;;8.10;60.30;;;;;;5074237;28;20049;-72
2021/04/02 07:58:52;;;;;;;1999.90;999.90;;;8.10;59.90;;;;;;5062456;28;20044;-72
2021/04/02 08:01:21;;;;;;;1999.90;999.90;;;8.10;59.80;;;;;;5058090;28;20139;-71
2021/04/02 08:03:49;;;;;;;;;;;8.10;59.90;;;;;;5054402;28;20045;-72
2021/04/02 08:06:37;;;;;;;1999.90;999.90;;;8.00;60.90;;;;;;5054959;28;19921;-71
2021/04/02 08:09:08;;;;;;;1999.90;999.90;;;8.00;60.40;;;;;;5063934;28;20100;-71
2021/04/02 08:11:43;;;;;;;1999.90;999.90;;;8.00;60.20;;;;;;5066978;28;20041;-72
2021/04/02 08:14:11;;;;;;;1999.90;999.90;;;7.90;60.10;;;;;;5065400;28;20056;-71
2021/04/02 08:16:44;;;;;;;1999.90;999.90;;;8.00;60.30;;;;;;5062519;28;20132;-72
2021/04/02 08:19:18;;;;;;;1999.90;999.90;;;8.00;60.50;;;;;;5057822;28;20067;-72
2021/04/02 08:21:50;;;;;;;1999.90;999.90;;;8.00;60.30;;;;;;5058048;28;20476;-72
2021/04/02 08:24:19;;;;;;;1999.90;999.90;;;8.00;60.40;;;;;;5058744;28;20055;-72
2021/04/02 08:26:46;;;;;;;1999.90;999.90;;;8.00;60.70;;;;;;5056820;28;20080;-72
2021/04/02 08:29:14;;;;;;;1999.90;999.90;;;8.00;60.50;;;;;;5056345;28;20433;-71
2021/04/02 08:31:48;;;;;;;1999.90;999.90;;;8.00;60.50;;;;;;5057455;28;20066;-72
2021/04/02 08:34:17;;;;;;;1999.90;999.90;;;8.10;60.60;;;;;;5057339;28;20052;-72
2021/04/02 08:36:45;;;;;;;1999.90;999.90;;;8.10;60.70;;;;;;5055774;28;20143;-72
2021/04/02 08:39:12;;;;;;;1999.90;999.90;;;8.20;60.80;;;;;;5058716;28;20052;-72
2021/04/02 08:41:38;;;;;;;1999.90;999.90;;;8.30;60.90;;;;;;5056180;28;20048;-72
2021/04/02 08:44:05;;;;;;;1999.90;999.90;;;8.30;60.80;;;;;;5058170;28;20043;-72
2021/04/02 08:46:52;;;;;;;1999.90;999.90;;;8.30;61.00;;;;;;5081928;28;20182;-72
2021/04/02 08:49:18;;;;;;;1999.90;999.90;;;8.30;60.90;;;;;;5059011;28;20047;-72
2021/04/02 08:51:48;;;;;;;1999.90;999.90;;;8.30;60.90;;;;;;5057373;28;20054;-72
2021/04/02 08:54:20;;;;;;;1999.90;999.90;;;8.30;60.80;;;;;;5059086;28;20503;-72
2021/04/02 08:56:50;;;;;;;1999.90;999.90;;;8.40;61.00;;;;;;5056269;28;20488;-72
2021/04/02 08:59:17;;;;;;;1999.90;999.90;;;8.40;60.90;;;;;;5058084;28;20084;-72
2021/04/02 09:01:46;;;;;;;1999.90;999.90;;;8.50;61.00;;;;;;5058306;28;20044;-72
2021/04/02 09:04:14;;;;;;;1999.90;999.90;;;8.50;61.20;;;;;;5055746;28;20047;-72
2021/04/02 09:06:42;;;;;;;1999.90;999.90;;;8.60;61.20;;;;;;5054364;28;20050;-72
2021/04/02 09:09:20;;;;;;;1999.90;999.90;;;8.60;61.10;;;;;;5054975;28;20491;-72
2021/04/02 09:11:52;;;;;;;1999.90;999.90;;;8.70;61.30;;;;;;5055312;28;20050;-72
2021/04/02 09:14:19;;;;;;;1999.90;999.90;;;8.80;61.40;;;;;;5054946;28;20503;-72
2021/04/02 09:16:46;;;;;;;1999.90;999.90;;;8.90;61.40;;;;;;5054931;28;20075;-72
2021/04/02 09:19:14;;;;;;;1999.90;999.90;;;9.00;61.50;;;;;;5054552;28;20052;-72
2021/04/02 09:21:54;;;;;;;1999.90;999.90;;;9.10;61.70;;;;;;5056072;28;20052;-72
2021/04/02 09:24:22;;;;;;;1999.90;999.90;;;9.10;61.60;;;;;;5053826;28;20621;-71
2021/04/02 09:26:49;;;;;;;1999.90;999.90;;;9.10;61.50;;;;;;5055282;28;20136;-71
2021/04/02 09:29:17;;;;;;;1999.90;999.90;;;9.20;61.60;;;;;;5054880;28;20469;-71
2021/04/02 09:31:44;;;;;;;1999.90;999.90;;;9.20;61.70;;;;;;5055235;28;20074;-71
2021/04/02 09:34:15;;;;;;;1999.90;999.90;;;9.30;61.80;;;;;;5054803;28;20056;-72
2021/04/02 09:36:42;;;;;;;1999.90;999.90;;;9.30;62.00;;;;;;5055063;28;20136;-71
2021/04/02 09:39:10;;;;;;;1999.90;999.90;;;9.30;62.00;;;;;;5055853;28;20392;-72
2021/04/02 09:41:40;;;;;;;1999.90;999.90;;;9.30;62.00;;;;;;5059011;28;20055;-72
2021/04/02 09:44:14;;;;;;;1999.90;999.90;;;9.30;61.90;;;;;;5058783;28;20183;-71
2021/04/02 09:46:43;;;;;;;1999.90;999.90;;;9.30;62.00;;;;;;5057042;28;20044;-71
2021/04/02 09:49:13;;;;;;;1999.90;999.90;;;9.40;62.20;;;;;;5057106;28;20044;-71
2021/04/02 09:51:51;;;;;;;1999.90;999.90;;;9.50;62.40;;;;;;5056683;28;20070;-72
2021/04/02 09:54:19;;;;;;;1999.90;999.90;;;9.60;62.60;;;;;;5056123;28;20053;-71
2021/04/02 09:56:47;;;;;;;1999.90;999.90;;;9.70;62.60;;;;;;5056747;28;20044;-72
2021/04/02 09:59:14;;;;;;;1999.90;999.90;;;9.80;62.60;;;;;;5059854;28;20044;-72
2021/04/02 10:01:41;;;;;;;1999.90;999.90;;;9.90;62.80;;;;;;5057336;28;20052;-72
2021/04/02 10:04:09;;;;;;;1999.90;999.90;;;10.00;62.50;;;;;;5082952;28;20048;-72
2021/04/02 10:06:36;;;;;;;1999.90;999.90;;;10.00;61.70;;;;;;5056391;28;20139;-71
2021/04/02 10:09:04;;;;;;;1999.90;999.90;;;10.10;61.60;;;;;;5055545;28;20053;-71
2021/04/02 10:11:31;;;;;;;1999.90;999.90;;;10.00;61.50;;;;;;5056920;28;20504;-71
2021/04/02 10:13:58;;;;;;;1999.90;999.90;;;10.00;61.40;;;;;;5056168;28;20041;-71
2021/04/02 10:16:24;;;;;;;1999.90;999.90;;;10.00;61.30;;;;;;5057005;28;20044;-71
2021/04/02 10:18:51;;;;;;;1999.90;999.90;;;10.00;61.10;;;;;;5058015;28;20087;-72
2021/04/02 10:21:19;;;;;;;1999.90;999.90;;;9.90;62.10;;;;;;5056985;28;20048;-72
2021/04/02 10:23:46;;;;;;;1999.90;999.90;;;9.90;62.20;;;;;;5057839;28;20036;-72
2021/04/02 10:26:13;;;;;;;1999.90;999.90;;;9.80;62.10;;;;;;5056919;28;20051;-71
2021/04/02 10:28:40;;;;;;;1999.90;999.90;;;9.80;62.20;;;;;;5043725;28;20055;-72
2021/04/02 10:31:07;;;;;;;1999.90;999.90;;;9.70;62.10;;;;;;5054476;28;20077;-71
2021/04/02 10:33:33;;;;;;;1999.90;999.90;;;9.70;62.20;;;;;;5055501;28;20515;-72
2021/04/02 10:36:00;;;;;;;1999.90;999.90;;;9.70;62.20;;;;;;5054424;28;20048;-72
2021/04/02 10:38:26;;;;;;;1999.90;999.90;;;9.60;62.10;;;;;;5056288;28;20063;-71
2021/04/02 10:40:53;;;;;;;1999.90;999.90;;;9.60;62.20;;;;;;5054066;28;20040;-71
2021/04/02 10:43:20;;;;;;;1999.90;999.90;;;9.60;62.10;;;;;;5056268;28;20779;-71
2021/04/02 10:45:47;;;;;;;1999.90;999.90;;;9.50;62.10;;;;;;5056233;28;20051;-71
2021/04/02 10:48:13;;;;;;;1999.90;999.90;;;9.50;62.10;;;;;;5057580;28;20056;-72
2021/04/02 10:50:43;;;;;;;1999.90;999.90;;;9.50;62.30;;;;;;5057370;28;20037;-72
2021/04/02 10:53:10;;;;;;;1999.90;999.90;;;9.60;62.30;;;;;;5057433;28;20056;-71
2021/04/02 10:55:36;;;;;;;1999.90;999.90;;;9.60;62.30;;;;;;5056357;28;20124;-71
2021/04/02 10:58:05;;;;;;;1999.90;999.90;;;9.70;62.60;;;;;;5054061;28;20049;-71
2021/04/02 11:00:33;;;;;;;1999.90;999.90;;;9.70;62.40;;;;;;5059691;28;20044;-72
2021/04/02 11:03:00;;;;;;;1999.90;999.90;;;9.80;62.50;;;;;;5056584;28;20673;-72
2021/04/02 11:05:27;;;;;;;1999.90;999.90;;;9.90;62.50;;;;;;5055325;28;20052;-72
2021/04/02 11:07:53;;;;;;;1999.90;999.90;;;10.00;61.60;;;;;;5056313;28;20040;-72
2021/04/02 11:10:19;;;;;;;1999.90;999.90;;;10.10;61.70;;;;;;5056225;28;20045;-72
2021/04/02 11:12:45;;;;;;;1999.90;999.90;;;10.10;61.80;;;;;;5051272;28;20058;-72
2021/04/02 11:15:12;;;;;;;1999.90;999.90;;;10.20;61.70;;;;;;5052927;28;20496;-72
2021/04/02 11:17:40;;;;;;;1999.90;999.90;;;10.10;61.50;;;;;;5058086;28;20041;-71
2021/04/02 11:20:09;;;;;;;1999.90;999.90;;;10.10;61.50;;;;;;5059716;28;20067;-72
2021/04/02 11:22:36;;;;;;;1999.90;999.90;;;10.20;61.60;;;;;;5052803;28;20037;-72
2021/04/02 11:25:07;;;;;;;1999.90;999.90;;;10.20;61.60;;;;;;5052864;28;20059;-72
2021/04/02 11:27:34;;;;;;;1999.90;999.90;;;10.30;61.80;;;;;;5074421;28;20048;-72
2021/04/02 11:30:01;;;;;;;1999.90;999.90;;;10.40;61.90;;;;;;5054895;28;20583;-71
2021/04/02 11:32:27;;;;;;;1999.90;999.90;;;10.50;62.00;;;;;;5057637;28;20470;-72
2021/04/02 11:34:53;;;;;;;1999.90;999.90;;;10.50;62.00;;;;;;5056287;28;20136;-71
2021/04/02 11:37:20;;;;;;;1999.90;999.90;;;10.60;62.00;;;;;;5053641;28;20055;-72
2021/04/02 11:39:47;;;;;;;1999.90;999.90;;;10.60;62.10;;;;;;5053412;28;20606;-71
2021/04/02 11:42:13;;;;;;;1999.90;999.90;;;10.70;62.10;;;;;;5053392;28;20478;-72
2021/04/02 11:44:40;;;;;;;1999.90;999.90;;;10.70;62.30;;;;;;5056569;28;20067;-71
2021/04/02 11:47:06;;;;;;;1999.90;999.90;;;10.70;62.00;;;;;;5057652;28;20048;-71
2021/04/02 11:49:33;;;;;;;1999.90;999.90;;;10.70;62.00;;;;;;5060436;28;20049;-72
2021/04/02 11:52:00;;;;;;;1999.90;999.90;;;10.70;62.00;;;;;;5058713;28;20044;-71
2021/04/02 11:54:27;;;;;;;1999.90;999.90;;;10.70;62.00;;;;;;5053046;28;20056;-72
2021/04/02 11:56:53;;;;;;;1999.90;999.90;;;10.60;62.00;;;;;;5053254;28;20135;-72
2021/04/02 11:59:20;;;;;;;1999.90;999.90;;;10.70;62.20;;;;;;5058265;28;20057;-72
2021/04/02 12:01:46;;;;;;;1999.90;999.90;;;10.70;62.20;;;;;;5056516;28;20076;-72
2021/04/02 12:04:13;;;;;;;1999.90;999.90;;;10.70;62.00;;;;;;5056808;28;20524;-72
2021/04/02 12:06:40;;;;;;;1999.90;999.90;;;10.70;61.70;;;;;;5056385;28;20089;-72
2021/04/02 12:09:09;;;;;;;1999.90;999.90;;;10.60;61.60;;;;;;5053974;28;20052;-72
2021/04/02 12:11:35;;;;;;;1999.90;999.90;;;10.60;61.70;;;;;;5055027;28;20045;-72
2021/04/02 12:14:02;;;;;;;1999.90;999.90;;;10.50;61.60;;;;;;5054597;28;20066;-72
2021/04/02 12:16:28;;;;;;;1999.90;999.90;;;10.50;61.60;;;;;;5055215;28;20094;-72
2021/04/02 12:18:54;;;;;;;1999.90;999.90;;;10.40;61.70;;;;;;5059079;28;20056;-71